sensor_id;sensor_type;location;lat;lon;timestamp;pressure;altitude;pressure_sealevel;temperature;humidity
5703;BME280;2876;51.738;10.050;2022-12-11T00:03:10;98722.44;;;0.32;86.66
5703;BME280;2876;51.738;10.050;2022-12-11T00:09:19;98711.34;;;0.29;87.27
5703;BME280;2876;51.738;10.050;2022-12-11T00:15:22;98708.56;;;0.30;87.19
5703;BME280;2876;51.738;10.050;2022-12-11T00:21:24;98697.84;;;0.32;87.07
5703;BME280;2876;51.738;10.050;2022-12-11T00:27:27;98691.28;;;0.36;87.36
5703;BME280;2876;51.738;10.050;2022-12-11T00:33:29;98689.94;;;0.32;87.39
5703;BME280;2876;51.738;10.050;2022-12-11T00:39:43;98686.03;;;0.36;87.28
5703;BME280;2876;51.738;10.050;2022-12-11T00:45:46;98689.94;;;0.32;86.87
5703;BME280;2876;51.738;10.050;2022-12-11T00:51:48;98694.38;;;0.31;85.77
5703;BME280;2876;51.738;10.050;2022-12-11T00:57:51;98700.03;;;0.36;83.67
5703;BME280;2876;51.738;10.050;2022-12-11T01:03:53;98706.66;;;0.05;79.89
5703;BME280;2876;51.738;10.050;2022-12-11T01:09:55;98707.34;;;0.07;80.83
5703;BME280;2876;51.738;10.050;2022-12-11T01:16:15;98715.91;;;0.09;81.44
5703;BME280;2876;51.738;10.050;2022-12-11T01:22:17;98717.16;;;0.14;81.93
5703;BME280;2876;51.738;10.050;2022-12-11T01:28:19;98718.09;;;0.13;81.49
5703;BME280;2876;51.738;10.050;2022-12-11T01:34:21;98716.81;;;0.17;82.04
5703;BME280;2876;51.738;10.050;2022-12-11T01:40:23;98716.31;;;0.14;82.50
5703;BME280;2876;51.738;10.050;2022-12-11T01:46:37;98716.88;;;0.08;82.97
5703;BME280;2876;51.738;10.050;2022-12-11T01:52:41;98705.59;;;-0.03;82.94
5703;BME280;2876;51.738;10.050;2022-12-11T01:58:52;98717.28;;;-0.15;83.15
5703;BME280;2876;51.738;10.050;2022-12-11T02:04:55;98716.19;;;-0.12;83.56
5703;BME280;2876;51.738;10.050;2022-12-11T02:11:19;98715.47;;;-0.14;82.64
5703;BME280;2876;51.738;10.050;2022-12-11T02:25:02;98702.25;;;-0.22;82.66
5703;BME280;2876;51.738;10.050;2022-12-11T02:31:27;98702.09;;;-0.21;83.26
5703;BME280;2876;51.738;10.050;2022-12-11T02:37:32;98696.66;;;-0.19;83.32
5703;BME280;2876;51.738;10.050;2022-12-11T02:43:37;98700.38;;;-0.12;83.16
5703;BME280;2876;51.738;10.050;2022-12-11T02:49:42;98705.53;;;0.07;83.00
5703;BME280;2876;51.738;10.050;2022-12-11T02:55:50;98699.31;;;-0.02;82.95
5703;BME280;2876;51.738;10.050;2022-12-11T03:01:53;98700.84;;;0.01;82.42
5703;BME280;2876;51.738;10.050;2022-12-11T03:07:55;98695.59;;;0.01;82.41
5703;BME280;2876;51.738;10.050;2022-12-11T03:14:02;98693.06;;;-0.01;82.77
5703;BME280;2876;51.738;10.050;2022-12-11T03:26:43;98705.06;;;0.12;81.78
5703;BME280;2876;51.738;10.050;2022-12-11T03:33:16;98705.81;;;0.04;82.38
5703;BME280;2876;51.738;10.050;2022-12-11T03:39:28;98699.13;;;0.10;81.50
5703;BME280;2876;51.738;10.050;2022-12-11T03:45:33;98696.31;;;-0.07;81.44
5703;BME280;2876;51.738;10.050;2022-12-11T03:51:37;98694.88;;;-0.01;81.92
5703;BME280;2876;51.738;10.050;2022-12-11T03:57:39;98699.59;;;0.05;81.55
5703;BME280;2876;51.738;10.050;2022-12-11T04:03:41;98700.69;;;0.03;81.36
5703;BME280;2876;51.738;10.050;2022-12-11T04:09:49;98699.59;;;0.05;80.93
5703;BME280;2876;51.738;10.050;2022-12-11T04:15:51;98699.03;;;0.02;81.25
5703;BME280;2876;51.738;10.050;2022-12-11T04:22:02;98696.03;;;-0.04;81.31
5703;BME280;2876;51.738;10.050;2022-12-11T04:28:34;98697.84;;;-0.04;80.79
5703;BME280;2876;51.738;10.050;2022-12-11T04:34:36;98691.13;;;0.02;81.28
5703;BME280;2876;51.738;10.050;2022-12-11T04:40:39;98688.50;;;0.02;81.58
5703;BME280;2876;51.738;10.050;2022-12-11T04:46:40;98683.91;;;0.04;80.97
5703;BME280;2876;51.738;10.050;2022-12-11T04:52:49;98684.41;;;-0.11;80.90
5703;BME280;2876;51.738;10.050;2022-12-11T04:58:51;98674.13;;;-0.04;80.71
5703;BME280;2876;51.738;10.050;2022-12-11T05:04:53;98663.22;;;-0.19;80.55
5703;BME280;2876;51.738;10.050;2022-12-11T05:16:59;98657.41;;;0.05;79.69
5703;BME280;2876;51.738;10.050;2022-12-11T05:23:01;98666.28;;;0.04;79.91
5703;BME280;2876;51.738;10.050;2022-12-11T05:29:03;98662.44;;;-0.02;79.44
5703;BME280;2876;51.738;10.050;2022-12-11T05:35:05;98667.63;;;0.08;79.72
5703;BME280;2876;51.738;10.050;2022-12-11T05:41:07;98667.78;;;0.07;80.84
5703;BME280;2876;51.738;10.050;2022-12-11T05:47:12;98666.59;;;0.01;80.75
5703;BME280;2876;51.738;10.050;2022-12-11T05:53:14;98668.63;;;0.07;80.76
5703;BME280;2876;51.738;10.050;2022-12-11T05:59:23;98660.03;;;0.05;80.93
5703;BME280;2876;51.738;10.050;2022-12-11T06:05:25;98656.72;;;0.03;81.84
5703;BME280;2876;51.738;10.050;2022-12-11T06:11:35;98658.53;;;0.03;81.34
5703;BME280;2876;51.738;10.050;2022-12-11T06:17:37;98662.16;;;0.02;81.91
5703;BME280;2876;51.738;10.050;2022-12-11T06:23:40;98647.31;;;0.01;82.27
5703;BME280;2876;51.738;10.050;2022-12-11T06:29:48;98652.25;;;0.04;82.68
5703;BME280;2876;51.738;10.050;2022-12-11T06:36:05;98647.81;;;0.04;82.91
5703;BME280;2876;51.738;10.050;2022-12-11T06:42:07;98654.22;;;0.02;83.65
5703;BME280;2876;51.738;10.050;2022-12-11T06:48:13;98654.78;;;0.05;83.35
5703;BME280;2876;51.738;10.050;2022-12-11T06:54:18;98661.41;;;0.09;83.07
5703;BME280;2876;51.738;10.050;2022-12-11T07:00:20;98652.25;;;0.04;83.11
5703;BME280;2876;51.738;10.050;2022-12-11T07:06:23;98664.78;;;0.02;83.52
5703;BME280;2876;51.738;10.050;2022-12-11T07:12:25;98662.41;;;-0.19;83.73
5703;BME280;2876;51.738;10.050;2022-12-11T07:18:46;98666.03;;;-0.20;84.26
5703;BME280;2876;51.738;10.050;2022-12-11T07:24:53;98668.38;;;-0.17;84.09
5703;BME280;2876;51.738;10.050;2022-12-11T07:30:55;98672.78;;;0.10;83.09
5703;BME280;2876;51.738;10.050;2022-12-11T07:37:00;98665.06;;;-0.02;81.78
5703;BME280;2876;51.738;10.050;2022-12-11T07:43:04;98674.75;;;-0.20;82.46
5703;BME280;2876;51.738;10.050;2022-12-11T07:49:12;98668.31;;;-0.08;82.21
5703;BME280;2876;51.738;10.050;2022-12-11T07:55:14;98678.16;;;-0.10;82.22
5703;BME280;2876;51.738;10.050;2022-12-11T08:01:22;98676.28;;;-0.17;80.62
5703;BME280;2876;51.738;10.050;2022-12-11T08:07:24;98668.75;;;-0.12;80.95
5703;BME280;2876;51.738;10.050;2022-12-11T08:13:31;98683.28;;;-0.08;81.56
5703;BME280;2876;51.738;10.050;2022-12-11T08:19:33;98677.13;;;0.01;81.48
5703;BME280;2876;51.738;10.050;2022-12-11T08:25:35;98680.06;;;-0.02;81.17
5703;BME280;2876;51.738;10.050;2022-12-11T08:31:41;98683.69;;;0.15;81.19
5703;BME280;2876;51.738;10.050;2022-12-11T08:37:43;98673.63;;;0.28;80.53
5703;BME280;2876;51.738;10.050;2022-12-11T08:43:45;98672.69;;;0.19;80.88
5703;BME280;2876;51.738;10.050;2022-12-11T08:49:47;98672.53;;;0.39;80.64
5703;BME280;2876;51.738;10.050;2022-12-11T08:55:49;98672.78;;;0.28;81.31
5703;BME280;2876;51.738;10.050;2022-12-11T09:01:51;98676.16;;;0.38;81.49
5703;BME280;2876;51.738;10.050;2022-12-11T09:08:10;98672.75;;;0.45;80.52
5703;BME280;2876;51.738;10.050;2022-12-11T09:14:23;98668.38;;;0.54;81.00
5703;BME280;2876;51.738;10.050;2022-12-11T09:20:25;98676.25;;;0.64;80.75
5703;BME280;2876;51.738;10.050;2022-12-11T09:26:33;98672.22;;;0.78;80.41
5703;BME280;2876;51.738;10.050;2022-12-11T09:32:35;98675.81;;;0.76;79.70
5703;BME280;2876;51.738;10.050;2022-12-11T09:38:38;98670.91;;;0.82;79.80
5703;BME280;2876;51.738;10.050;2022-12-11T09:50:48;98659.53;;;1.07;78.72
5703;BME280;2876;51.738;10.050;2022-12-11T09:57:03;98648.91;;;0.99;79.36
5703;BME280;2876;51.738;10.050;2022-12-11T10:16:47;98634.00;;;1.16;79.48
5703;BME280;2876;51.738;10.050;2022-12-11T10:22:52;98630.94;;;1.29;78.73
5703;BME280;2876;51.738;10.050;2022-12-11T10:28:59;98636.84;;;1.22;78.88
5703;BME280;2876;51.738;10.050;2022-12-11T10:35:08;98647.25;;;1.24;78.32
5703;BME280;2876;51.738;10.050;2022-12-11T10:41:20;98638.59;;;1.06;78.78
5703;BME280;2876;51.738;10.050;2022-12-11T10:47:26;98645.03;;;1.11;77.78
5703;BME280;2876;51.738;10.050;2022-12-11T10:53:29;98647.75;;;1.19;78.23
5703;BME280;2876;51.738;10.050;2022-12-11T10:59:35;98649.50;;;1.11;78.74
5703;BME280;2876;51.738;10.050;2022-12-11T11:05:38;98644.47;;;1.25;78.01
5703;BME280;2876;51.738;10.050;2022-12-11T11:11:55;98634.19;;;1.14;77.63
5703;BME280;2876;51.738;10.050;2022-12-11T11:18:10;98629.78;;;1.23;76.60
5703;BME280;2876;51.738;10.050;2022-12-11T11:24:38;98621.19;;;1.29;75.05
5703;BME280;2876;51.738;10.050;2022-12-11T11:31:10;98618.88;;;1.26;74.50
5703;BME280;2876;51.738;10.050;2022-12-11T11:37:32;98610.56;;;1.13;74.98
5703;BME280;2876;51.738;10.050;2022-12-11T11:43:56;98600.31;;;1.10;75.49
5703;BME280;2876;51.738;10.050;2022-12-11T11:50:27;98590.25;;;1.13;74.58
5703;BME280;2876;51.738;10.050;2022-12-11T11:56:36;98584.63;;;1.08;75.00
5703;BME280;2876;51.738;10.050;2022-12-11T12:02:39;98591.88;;;1.06;73.75
5703;BME280;2876;51.738;10.050;2022-12-11T12:21:33;98596.53;;;0.86;73.30
5703;BME280;2876;51.738;10.050;2022-12-11T12:34:45;98578.75;;;0.88;72.99
5703;BME280;2876;51.738;10.050;2022-12-11T12:41:27;98581.34;;;0.80;73.86
5703;BME280;2876;51.738;10.050;2022-12-11T12:47:37;98578.03;;;0.78;74.74
5703;BME280;2876;51.738;10.050;2022-12-11T12:53:41;98577.28;;;0.94;74.14
5703;BME280;2876;51.738;10.050;2022-12-11T12:59:53;98575.22;;;1.06;74.30
5703;BME280;2876;51.738;10.050;2022-12-11T13:06:08;98570.94;;;1.05;74.77
5703;BME280;2876;51.738;10.050;2022-12-11T13:12:27;98578.69;;;1.06;73.33
5703;BME280;2876;51.738;10.050;2022-12-11T13:18:37;98571.25;;;1.01;74.38
5703;BME280;2876;51.738;10.050;2022-12-11T13:25:01;98568.28;;;1.05;73.59
5703;BME280;2876;51.738;10.050;2022-12-11T13:37:41;98577.66;;;0.99;73.93
5703;BME280;2876;51.738;10.050;2022-12-11T13:43:47;98588.72;;;1.02;73.92
5703;BME280;2876;51.738;10.050;2022-12-11T13:50:10;98589.88;;;1.00;74.21
5703;BME280;2876;51.738;10.050;2022-12-11T13:56:23;98586.84;;;0.95;74.60
5703;BME280;2876;51.738;10.050;2022-12-11T14:02:43;98598.16;;;0.79;75.08
5703;BME280;2876;51.738;10.050;2022-12-11T14:08:51;98599.50;;;0.83;75.08
5703;BME280;2876;51.738;10.050;2022-12-11T14:15:11;98600.38;;;0.66;76.00
5703;BME280;2876;51.738;10.050;2022-12-11T14:21:21;98606.16;;;0.43;75.04
5703;BME280;2876;51.738;10.050;2022-12-11T14:27:33;98609.91;;;0.41;75.56
5703;BME280;2876;51.738;10.050;2022-12-11T14:33:39;98611.06;;;0.38;76.27
5703;BME280;2876;51.738;10.050;2022-12-11T14:40:18;98607.00;;;0.26;76.12
5703;BME280;2876;51.738;10.050;2022-12-11T14:46:51;98606.50;;;0.05;75.81
5703;BME280;2876;51.738;10.050;2022-12-11T14:53:00;98604.34;;;-0.28;74.73
5703;BME280;2876;51.738;10.050;2022-12-11T14:59:05;98602.59;;;-0.37;75.96
5703;BME280;2876;51.738;10.050;2022-12-11T15:05:19;98605.84;;;-0.43;76.37
5703;BME280;2876;51.738;10.050;2022-12-11T15:11:23;98605.66;;;-0.59;76.93
5703;BME280;2876;51.738;10.050;2022-12-11T15:17:30;98604.75;;;-0.68;77.86
5703;BME280;2876;51.738;10.050;2022-12-11T15:23:54;98609.41;;;-0.89;78.87
5703;BME280;2876;51.738;10.050;2022-12-11T15:29:56;98625.75;;;-0.95;78.98
5703;BME280;2876;51.738;10.050;2022-12-11T15:36:40;98630.97;;;-1.23;79.99
5703;BME280;2876;51.738;10.050;2022-12-11T15:42:41;98637.94;;;-1.32;80.51
5703;BME280;2876;51.738;10.050;2022-12-11T15:48:56;98640.13;;;-1.37;80.72
5703;BME280;2876;51.738;10.050;2022-12-11T15:54:58;98642.09;;;-1.48;81.20
5703;BME280;2876;51.738;10.050;2022-12-11T16:01:25;98643.91;;;-1.59;81.39
5703;BME280;2876;51.738;10.050;2022-12-11T16:07:27;98640.44;;;-1.79;81.59
5703;BME280;2876;51.738;10.050;2022-12-11T16:13:29;98637.81;;;-1.79;82.37
5703;BME280;2876;51.738;10.050;2022-12-11T16:19:35;98634.91;;;-1.75;81.95
5703;BME280;2876;51.738;10.050;2022-12-11T16:25:40;98641.13;;;-1.96;82.45
5703;BME280;2876;51.738;10.050;2022-12-11T16:31:49;98638.22;;;-2.12;82.47
5703;BME280;2876;51.738;10.050;2022-12-11T16:37:52;98630.31;;;-2.32;81.91
5703;BME280;2876;51.738;10.050;2022-12-11T16:44:04;98632.06;;;-2.51;82.16
5703;BME280;2876;51.738;10.050;2022-12-11T16:50:08;98626.31;;;-2.76;81.81
5703;BME280;2876;51.738;10.050;2022-12-11T16:56:19;98631.53;;;-2.86;82.24
5703;BME280;2876;51.738;10.050;2022-12-11T17:02:21;98624.06;;;-2.90;82.03
5703;BME280;2876;51.738;10.050;2022-12-11T17:08:24;98630.81;;;-3.18;82.56
5703;BME280;2876;51.738;10.050;2022-12-11T17:14:26;98632.75;;;-3.41;83.66
5703;BME280;2876;51.738;10.050;2022-12-11T17:20:28;98622.16;;;-3.40;83.38
5703;BME280;2876;51.738;10.050;2022-12-11T17:26:40;98626.56;;;-3.61;83.39
5703;BME280;2876;51.738;10.050;2022-12-11T17:32:46;98621.50;;;-3.74;84.06
5703;BME280;2876;51.738;10.050;2022-12-11T17:38:58;98625.28;;;-3.67;84.46
5703;BME280;2876;51.738;10.050;2022-12-11T17:45:00;98638.00;;;-3.62;84.08
5703;BME280;2876;51.738;10.050;2022-12-11T17:51:05;98636.34;;;-3.84;84.09
5703;BME280;2876;51.738;10.050;2022-12-11T17:57:07;98630.34;;;-4.07;85.46
5703;BME280;2876;51.738;10.050;2022-12-11T18:03:10;98635.38;;;-4.15;86.44
5703;BME280;2876;51.738;10.050;2022-12-11T18:09:24;98641.28;;;-4.02;86.07
5703;BME280;2876;51.738;10.050;2022-12-11T18:15:26;98635.47;;;-4.05;85.69
5703;BME280;2876;51.738;10.050;2022-12-11T18:21:33;98643.22;;;-4.15;86.28
5703;BME280;2876;51.738;10.050;2022-12-11T18:27:35;98645.94;;;-4.05;86.28
5703;BME280;2876;51.738;10.050;2022-12-11T18:33:39;98652.72;;;-4.03;86.14
5703;BME280;2876;51.738;10.050;2022-12-11T18:39:41;98655.66;;;-3.96;86.34
5703;BME280;2876;51.738;10.050;2022-12-11T18:45:43;98650.41;;;-3.96;86.60
5703;BME280;2876;51.738;10.050;2022-12-11T18:51:46;98651.38;;;-3.97;86.07
5703;BME280;2876;51.738;10.050;2022-12-11T18:57:50;98659.00;;;-4.05;86.43
5703;BME280;2876;51.738;10.050;2022-12-11T19:03:55;98655.19;;;-4.01;86.45
5703;BME280;2876;51.738;10.050;2022-12-11T19:10:05;98656.00;;;-3.90;86.23
5703;BME280;2876;51.738;10.050;2022-12-11T19:16:24;98658.78;;;-3.49;86.27
5703;BME280;2876;51.738;10.050;2022-12-11T19:22:38;98665.91;;;-3.10;85.77
5703;BME280;2876;51.738;10.050;2022-12-11T19:28:41;98665.31;;;-2.92;85.52
5703;BME280;2876;51.738;10.050;2022-12-11T19:34:43;98661.59;;;-2.59;84.11
5703;BME280;2876;51.738;10.050;2022-12-11T19:40:45;98662.19;;;-2.46;84.34
5703;BME280;2876;51.738;10.050;2022-12-11T19:46:47;98674.16;;;-2.22;83.34
5703;BME280;2876;51.738;10.050;2022-12-11T19:52:49;98671.78;;;-2.25;84.10
5703;BME280;2876;51.738;10.050;2022-12-11T19:58:53;98667.47;;;-2.36;84.04
5703;BME280;2876;51.738;10.050;2022-12-11T20:04:55;98660.56;;;-2.37;84.06
5703;BME280;2876;51.738;10.050;2022-12-11T20:11:06;98659.97;;;-2.41;84.30
5703;BME280;2876;51.738;10.050;2022-12-11T20:17:16;98663.50;;;-2.21;84.25
5703;BME280;2876;51.738;10.050;2022-12-11T20:23:18;98653.66;;;-2.38;84.07
5703;BME280;2876;51.738;10.050;2022-12-11T20:29:20;98656.53;;;-2.41;83.76
5703;BME280;2876;51.738;10.050;2022-12-11T20:35:28;98658.03;;;-2.48;84.44
5703;BME280;2876;51.738;10.050;2022-12-11T20:41:30;98663.97;;;-2.46;84.41
5703;BME280;2876;51.738;10.050;2022-12-11T20:47:32;98665.22;;;-2.50;84.67
5703;BME280;2876;51.738;10.050;2022-12-11T20:53:35;98668.38;;;-2.57;84.72
5703;BME280;2876;51.738;10.050;2022-12-11T20:59:37;98665.56;;;-2.65;84.78
5703;BME280;2876;51.738;10.050;2022-12-11T21:05:41;98665.78;;;-2.77;84.97
5703;BME280;2876;51.738;10.050;2022-12-11T21:11:56;98665.56;;;-2.95;85.03
5703;BME280;2876;51.738;10.050;2022-12-11T21:17:58;98660.13;;;-3.13;85.26
5703;BME280;2876;51.738;10.050;2022-12-11T21:24:05;98660.13;;;-3.55;86.38
5703;BME280;2876;51.738;10.050;2022-12-11T21:30:08;98660.94;;;-3.75;86.40
5703;BME280;2876;51.738;10.050;2022-12-11T21:36:16;98672.91;;;-3.94;86.51
5703;BME280;2876;51.738;10.050;2022-12-11T21:42:18;98667.25;;;-4.10;86.95
5703;BME280;2876;51.738;10.050;2022-12-11T21:48:20;98663.94;;;-4.12;86.72
5703;BME280;2876;51.738;10.050;2022-12-11T21:54:22;98670.78;;;-4.43;87.25
5703;BME280;2876;51.738;10.050;2022-12-11T22:00:24;98656.31;;;-4.58;87.50
5703;BME280;2876;51.738;10.050;2022-12-11T22:06:26;98660.22;;;-4.75;88.57
5703;BME280;2876;51.738;10.050;2022-12-11T22:12:28;98666.78;;;-4.81;88.67
5703;BME280;2876;51.738;10.050;2022-12-11T22:18:30;98658.56;;;-4.99;89.22
5703;BME280;2876;51.738;10.050;2022-12-11T22:24:32;98657.13;;;-5.03;89.83
5703;BME280;2876;51.738;10.050;2022-12-11T22:30:34;98656.66;;;-4.97;89.54
5703;BME280;2876;51.738;10.050;2022-12-11T22:36:37;98659.41;;;-4.98;90.10
5703;BME280;2876;51.738;10.050;2022-12-11T22:42:39;98666.50;;;-5.12;90.35
5703;BME280;2876;51.738;10.050;2022-12-11T22:48:41;98663.66;;;-5.20;90.67
5703;BME280;2876;51.738;10.050;2022-12-11T22:54:43;98657.00;;;-5.24;90.97
5703;BME280;2876;51.738;10.050;2022-12-11T23:00:45;98658.81;;;-5.13;90.99
5703;BME280;2876;51.738;10.050;2022-12-11T23:06:47;98658.41;;;-5.20;91.44
5703;BME280;2876;51.738;10.050;2022-12-11T23:12:49;98664.03;;;-5.13;91.32
5703;BME280;2876;51.738;10.050;2022-12-11T23:18:53;98665.56;;;-5.11;90.85
5703;BME280;2876;51.738;10.050;2022-12-11T23:24:58;98669.97;;;-5.11;91.26
5703;BME280;2876;51.738;10.050;2022-12-11T23:31:00;98673.28;;;-5.20;90.77
5703;BME280;2876;51.738;10.050;2022-12-11T23:37:02;98673.63;;;-5.25;90.89
5703;BME280;2876;51.738;10.050;2022-12-11T23:43:04;98672.53;;;-5.33;90.42
5703;BME280;2876;51.738;10.050;2022-12-11T23:49:16;98677.53;;;-5.30;90.38
5703;BME280;2876;51.738;10.050;2022-12-11T23:55:18;98672.19;;;-5.40;91.35
